sensor_id;sensor_type;location;lat;lon;timestamp;temperature;humidity
43015;DHT22;28637;50.554;7.032;2023-01-29T00:00:37;0.50;99.90
43015;DHT22;28637;50.554;7.032;2023-01-29T00:05:37;0.30;99.90
43015;DHT22;28637;50.554;7.032;2023-01-29T00:10:38;0.40;99.90
43015;DHT22;28637;50.554;7.032;2023-01-29T00:15:39;0.10;99.90
43015;DHT22;28637;50.554;7.032;2023-01-29T00:20:42;0.10;99.90
43015;DHT22;28637;50.554;7.032;2023-01-29T00:25:43;0.20;99.90
43015;DHT22;28637;50.554;7.032;2023-01-29T00:30:44;0.00;99.90
43015;DHT22;28637;50.554;7.032;2023-01-29T00:35:45;-0.20;99.90
43015;DHT22;28637;50.554;7.032;2023-01-29T00:40:46;-0.40;99.90
43015;DHT22;28637;50.554;7.032;2023-01-29T00:46:05;-0.60;99.90
43015;DHT22;28637;50.554;7.032;2023-01-29T00:51:06;-0.70;99.90
43015;DHT22;28637;50.554;7.032;2023-01-29T00:56:06;-0.90;99.90
43015;DHT22;28637;50.554;7.032;2023-01-29T01:01:07;-1.00;99.90
43015;DHT22;28637;50.554;7.032;2023-01-29T01:06:09;-1.20;99.90
43015;DHT22;28637;50.554;7.032;2023-01-29T01:11:10;-1.30;99.90
43015;DHT22;28637;50.554;7.032;2023-01-29T01:16:12;-1.30;99.90
43015;DHT22;28637;50.554;7.032;2023-01-29T01:21:13;-1.30;99.90
43015;DHT22;28637;50.554;7.032;2023-01-29T01:26:14;-1.20;99.90
43015;DHT22;28637;50.554;7.032;2023-01-29T01:31:14;-1.10;99.90
43015;DHT22;28637;50.554;7.032;2023-01-29T01:36:15;-1.30;99.90
43015;DHT22;28637;50.554;7.032;2023-01-29T01:41:18;-1.60;99.90
43015;DHT22;28637;50.554;7.032;2023-01-29T01:46:20;-1.60;99.90
43015;DHT22;28637;50.554;7.032;2023-01-29T01:51:23;-1.60;99.90
43015;DHT22;28637;50.554;7.032;2023-01-29T01:56:30;-1.60;99.90
43015;DHT22;28637;50.554;7.032;2023-01-29T02:01:42;-1.80;99.90
43015;DHT22;28637;50.554;7.032;2023-01-29T02:06:44;-1.90;99.90
43015;DHT22;28637;50.554;7.032;2023-01-29T02:12:06;-1.90;99.90
43015;DHT22;28637;50.554;7.032;2023-01-29T02:17:10;-1.90;99.90
43015;DHT22;28637;50.554;7.032;2023-01-29T02:49:37;-1.90;99.90
43015;DHT22;28637;50.554;7.032;2023-01-29T02:54:53;-1.80;99.90
43015;DHT22;28637;50.554;7.032;2023-01-29T02:59:59;-1.80;99.90
43015;DHT22;28637;50.554;7.032;2023-01-29T03:05:04;-1.80;99.90
43015;DHT22;28637;50.554;7.032;2023-01-29T03:10:34;-1.80;99.90
43015;DHT22;28637;50.554;7.032;2023-01-29T03:15:41;-1.80;99.90
43015;DHT22;28637;50.554;7.032;2023-01-29T03:21:01;-1.80;99.90
43015;DHT22;28637;50.554;7.032;2023-01-29T03:26:03;-1.80;99.90
43015;DHT22;28637;50.554;7.032;2023-01-29T03:31:25;-1.80;99.90
43015;DHT22;28637;50.554;7.032;2023-01-29T03:36:56;-1.70;99.90
43015;DHT22;28637;50.554;7.032;2023-01-29T03:47:18;-1.70;99.90
43015;DHT22;28637;50.554;7.032;2023-01-29T03:52:49;-1.60;99.90
43015;DHT22;28637;50.554;7.032;2023-01-29T03:58:19;-1.50;99.90
43015;DHT22;28637;50.554;7.032;2023-01-29T04:03:36;-1.50;99.90
43015;DHT22;28637;50.554;7.032;2023-01-29T04:14:01;-1.60;99.90
43015;DHT22;28637;50.554;7.032;2023-01-29T04:19:04;-1.70;99.90
43015;DHT22;28637;50.554;7.032;2023-01-29T04:24:06;-1.80;99.90
43015;DHT22;28637;50.554;7.032;2023-01-29T04:46:17;-2.10;99.90
43015;DHT22;28637;50.554;7.032;2023-01-29T04:51:28;-2.10;99.90
43015;DHT22;28637;50.554;7.032;2023-01-29T04:56:55;-2.00;99.90
43015;DHT22;28637;50.554;7.032;2023-01-29T05:01:58;-1.90;99.90
43015;DHT22;28637;50.554;7.032;2023-01-29T05:07:06;-2.10;99.90
43015;DHT22;28637;50.554;7.032;2023-01-29T05:12:10;-2.20;99.90
43015;DHT22;28637;50.554;7.032;2023-01-29T05:17:17;-2.40;99.90
43015;DHT22;28637;50.554;7.032;2023-01-29T05:22:18;-2.50;99.90
43015;DHT22;28637;50.554;7.032;2023-01-29T05:27:28;-2.40;99.90
43015;DHT22;28637;50.554;7.032;2023-01-29T05:32:50;-2.40;99.90
43015;DHT22;28637;50.554;7.032;2023-01-29T05:37:50;-2.40;99.90
43015;DHT22;28637;50.554;7.032;2023-01-29T05:42:51;-2.40;99.90
43015;DHT22;28637;50.554;7.032;2023-01-29T05:47:58;-2.40;99.90
43015;DHT22;28637;50.554;7.032;2023-01-29T05:53:00;-2.40;99.90
43015;DHT22;28637;50.554;7.032;2023-01-29T05:58:01;-2.40;99.90
43015;DHT22;28637;50.554;7.032;2023-01-29T06:03:01;-2.40;99.90
43015;DHT22;28637;50.554;7.032;2023-01-29T06:08:02;-2.40;99.90
43015;DHT22;28637;50.554;7.032;2023-01-29T06:13:03;-2.40;99.90
43015;DHT22;28637;50.554;7.032;2023-01-29T06:18:04;-2.30;99.90
43015;DHT22;28637;50.554;7.032;2023-01-29T06:23:04;-2.40;99.90
43015;DHT22;28637;50.554;7.032;2023-01-29T06:28:05;-2.50;99.90
43015;DHT22;28637;50.554;7.032;2023-01-29T06:33:06;-2.60;99.90
43015;DHT22;28637;50.554;7.032;2023-01-29T06:38:07;-2.50;99.90
43015;DHT22;28637;50.554;7.032;2023-01-29T06:43:07;-2.60;99.90
43015;DHT22;28637;50.554;7.032;2023-01-29T06:48:08;-2.90;99.90
43015;DHT22;28637;50.554;7.032;2023-01-29T06:53:08;-3.00;99.90
43015;DHT22;28637;50.554;7.032;2023-01-29T06:58:11;-2.90;99.90
43015;DHT22;28637;50.554;7.032;2023-01-29T07:03:12;-2.90;99.90
43015;DHT22;28637;50.554;7.032;2023-01-29T07:08:12;-2.90;99.90
43015;DHT22;28637;50.554;7.032;2023-01-29T07:13:13;-2.90;99.90
43015;DHT22;28637;50.554;7.032;2023-01-29T07:18:14;-2.90;99.90
43015;DHT22;28637;50.554;7.032;2023-01-29T07:23:14;-2.90;99.90
43015;DHT22;28637;50.554;7.032;2023-01-29T07:28:16;-2.90;99.90
43015;DHT22;28637;50.554;7.032;2023-01-29T07:33:17;-3.00;99.90
43015;DHT22;28637;50.554;7.032;2023-01-29T07:38:17;-3.10;99.90
43015;DHT22;28637;50.554;7.032;2023-01-29T07:43:18;-3.10;99.90
43015;DHT22;28637;50.554;7.032;2023-01-29T07:48:19;-3.10;99.90
43015;DHT22;28637;50.554;7.032;2023-01-29T07:53:20;-2.90;99.90
43015;DHT22;28637;50.554;7.032;2023-01-29T07:58:20;-2.70;99.90
43015;DHT22;28637;50.554;7.032;2023-01-29T08:03:21;-2.70;99.90
43015;DHT22;28637;50.554;7.032;2023-01-29T08:08:22;-2.50;99.90
43015;DHT22;28637;50.554;7.032;2023-01-29T08:13:22;-2.30;99.90
43015;DHT22;28637;50.554;7.032;2023-01-29T08:18:23;-2.10;99.90
43015;DHT22;28637;50.554;7.032;2023-01-29T08:23:23;-1.90;99.90
43015;DHT22;28637;50.554;7.032;2023-01-29T08:28:24;-1.90;99.90
43015;DHT22;28637;50.554;7.032;2023-01-29T08:33:25;-1.70;99.90
43015;DHT22;28637;50.554;7.032;2023-01-29T08:38:28;-1.90;99.90
43015;DHT22;28637;50.554;7.032;2023-01-29T08:43:29;-1.80;99.90
43015;DHT22;28637;50.554;7.032;2023-01-29T08:48:30;-1.80;99.90
43015;DHT22;28637;50.554;7.032;2023-01-29T08:53:31;-1.90;99.90
43015;DHT22;28637;50.554;7.032;2023-01-29T08:58:32;-1.90;99.90
43015;DHT22;28637;50.554;7.032;2023-01-29T09:03:33;-1.80;99.90
43015;DHT22;28637;50.554;7.032;2023-01-29T09:08:33;-1.90;99.90
43015;DHT22;28637;50.554;7.032;2023-01-29T09:13:34;-1.70;99.90
43015;DHT22;28637;50.554;7.032;2023-01-29T09:18:35;-1.50;99.90
43015;DHT22;28637;50.554;7.032;2023-01-29T09:23:36;-1.60;99.90
43015;DHT22;28637;50.554;7.032;2023-01-29T09:28:36;-1.70;99.90
43015;DHT22;28637;50.554;7.032;2023-01-29T09:33:37;-1.70;99.90
43015;DHT22;28637;50.554;7.032;2023-01-29T09:38:38;-1.40;99.90
43015;DHT22;28637;50.554;7.032;2023-01-29T09:44:01;-1.40;99.90
43015;DHT22;28637;50.554;7.032;2023-01-29T09:49:25;-0.70;99.90
43015;DHT22;28637;50.554;7.032;2023-01-29T09:54:34;-0.10;99.90
43015;DHT22;28637;50.554;7.032;2023-01-29T09:59:42;-0.30;99.90
43015;DHT22;28637;50.554;7.032;2023-01-29T10:21:01;0.30;99.90
43015;DHT22;28637;50.554;7.032;2023-01-29T10:26:10;0.20;99.90
43015;DHT22;28637;50.554;7.032;2023-01-29T10:31:32;-0.10;99.90
43015;DHT22;28637;50.554;7.032;2023-01-29T10:36:45;0.20;99.90
43015;DHT22;28637;50.554;7.032;2023-01-29T11:03:20;1.20;99.90
43015;DHT22;28637;50.554;7.032;2023-01-29T11:08:24;1.60;99.90
43015;DHT22;28637;50.554;7.032;2023-01-29T11:13:33;1.50;99.90
43015;DHT22;28637;50.554;7.032;2023-01-29T11:18:58;1.80;99.90
43015;DHT22;28637;50.554;7.032;2023-01-29T11:24:13;1.70;99.90
43015;DHT22;28637;50.554;7.032;2023-01-29T11:34:29;2.00;99.90
43015;DHT22;28637;50.554;7.032;2023-01-29T11:39:32;2.40;99.90
43015;DHT22;28637;50.554;7.032;2023-01-29T11:44:40;2.60;99.90
43015;DHT22;28637;50.554;7.032;2023-01-29T11:49:55;2.60;99.90
43015;DHT22;28637;50.554;7.032;2023-01-29T11:55:03;2.40;99.90
43015;DHT22;28637;50.554;7.032;2023-01-29T12:00:19;2.80;99.90
43015;DHT22;28637;50.554;7.032;2023-01-29T12:05:23;3.10;99.90
43015;DHT22;28637;50.554;7.032;2023-01-29T12:10:39;3.60;99.90
43015;DHT22;28637;50.554;7.032;2023-01-29T12:15:41;4.10;99.90
43015;DHT22;28637;50.554;7.032;2023-01-29T12:20:50;4.20;99.90
43015;DHT22;28637;50.554;7.032;2023-01-29T12:26:13;4.30;99.90
43015;DHT22;28637;50.554;7.032;2023-01-29T12:36:54;5.00;99.90
43015;DHT22;28637;50.554;7.032;2023-01-29T12:42:01;5.70;99.90
43015;DHT22;28637;50.554;7.032;2023-01-29T12:47:06;6.00;99.90
43015;DHT22;28637;50.554;7.032;2023-01-29T12:52:18;6.20;99.90
43015;DHT22;28637;50.554;7.032;2023-01-29T12:57:41;6.60;99.90
43015;DHT22;28637;50.554;7.032;2023-01-29T13:08:37;6.80;99.90
43015;DHT22;28637;50.554;7.032;2023-01-29T13:18:57;6.00;99.90
43015;DHT22;28637;50.554;7.032;2023-01-29T13:24:02;6.30;99.90
43015;DHT22;28637;50.554;7.032;2023-01-29T13:29:03;7.00;98.60
43015;DHT22;28637;50.554;7.032;2023-01-29T13:34:16;6.60;99.90
43015;DHT22;28637;50.554;7.032;2023-01-29T13:39:21;6.80;99.20
43015;DHT22;28637;50.554;7.032;2023-01-29T13:44:31;7.60;99.30
43015;DHT22;28637;50.554;7.032;2023-01-29T13:54:36;9.60;91.40
43015;DHT22;28637;50.554;7.032;2023-01-29T13:59:53;9.30;91.10
43015;DHT22;28637;50.554;7.032;2023-01-29T14:10:32;9.90;85.20
43015;DHT22;28637;50.554;7.032;2023-01-29T14:15:35;10.30;86.50
43015;DHT22;28637;50.554;7.032;2023-01-29T14:20:50;10.50;82.20
43015;DHT22;28637;50.554;7.032;2023-01-29T14:25:52;10.70;81.00
43015;DHT22;28637;50.554;7.032;2023-01-29T14:30:53;10.70;80.20
43015;DHT22;28637;50.554;7.032;2023-01-29T14:35:57;10.40;80.40
43015;DHT22;28637;50.554;7.032;2023-01-29T14:41:25;10.50;84.60
43015;DHT22;28637;50.554;7.032;2023-01-29T14:51:37;10.20;79.30
43015;DHT22;28637;50.554;7.032;2023-01-29T14:56:44;8.80;82.90
43015;DHT22;28637;50.554;7.032;2023-01-29T15:01:59;7.40;86.90
43015;DHT22;28637;50.554;7.032;2023-01-29T15:07:13;7.00;90.30
43015;DHT22;28637;50.554;7.032;2023-01-29T15:12:22;5.80;92.80
43015;DHT22;28637;50.554;7.032;2023-01-29T15:17:40;4.80;99.90
43015;DHT22;28637;50.554;7.032;2023-01-29T15:22:45;4.10;99.90
43015;DHT22;28637;50.554;7.032;2023-01-29T15:27:45;3.40;99.90
43015;DHT22;28637;50.554;7.032;2023-01-29T15:32:47;2.90;99.90
43015;DHT22;28637;50.554;7.032;2023-01-29T15:38:06;2.60;99.90
43015;DHT22;28637;50.554;7.032;2023-01-29T15:43:24;2.10;99.90
43015;DHT22;28637;50.554;7.032;2023-01-29T15:48:30;2.00;99.90
43015;DHT22;28637;50.554;7.032;2023-01-29T15:53:57;1.80;99.90
43015;DHT22;28637;50.554;7.032;2023-01-29T15:59:01;1.60;99.90
43015;DHT22;28637;50.554;7.032;2023-01-29T16:04:03;1.30;99.90
43015;DHT22;28637;50.554;7.032;2023-01-29T16:09:04;1.10;99.90
43015;DHT22;28637;50.554;7.032;2023-01-29T16:14:05;1.00;99.90
43015;DHT22;28637;50.554;7.032;2023-01-29T16:19:27;0.90;99.90
43015;DHT22;28637;50.554;7.032;2023-01-29T16:24:29;0.90;99.90
43015;DHT22;28637;50.554;7.032;2023-01-29T16:29:32;0.90;99.90
43015;DHT22;28637;50.554;7.032;2023-01-29T16:34:43;0.80;99.90
43015;DHT22;28637;50.554;7.032;2023-01-29T16:39:47;0.70;99.90
43015;DHT22;28637;50.554;7.032;2023-01-29T16:44:59;0.60;99.90
43015;DHT22;28637;50.554;7.032;2023-01-29T16:55:23;0.50;99.90
43015;DHT22;28637;50.554;7.032;2023-01-29T17:00:29;0.40;99.90
43015;DHT22;28637;50.554;7.032;2023-01-29T17:05:33;0.30;99.90
43015;DHT22;28637;50.554;7.032;2023-01-29T17:10:35;0.20;99.90
43015;DHT22;28637;50.554;7.032;2023-01-29T17:15:45;0.20;99.90
43015;DHT22;28637;50.554;7.032;2023-01-29T17:20:47;0.20;99.90
43015;DHT22;28637;50.554;7.032;2023-01-29T17:25:48;0.20;99.90
43015;DHT22;28637;50.554;7.032;2023-01-29T17:30:48;0.20;99.90
43015;DHT22;28637;50.554;7.032;2023-01-29T17:35:49;0.20;99.90
43015;DHT22;28637;50.554;7.032;2023-01-29T17:40:51;0.40;99.90
43015;DHT22;28637;50.554;7.032;2023-01-29T17:45:52;0.40;99.90
43015;DHT22;28637;50.554;7.032;2023-01-29T17:50:56;0.20;99.90
43015;DHT22;28637;50.554;7.032;2023-01-29T17:55:57;0.20;99.90
43015;DHT22;28637;50.554;7.032;2023-01-29T18:00:57;0.40;99.90
43015;DHT22;28637;50.554;7.032;2023-01-29T18:05:58;0.50;99.90
43015;DHT22;28637;50.554;7.032;2023-01-29T18:10:59;0.60;99.90
43015;DHT22;28637;50.554;7.032;2023-01-29T18:16:00;0.70;99.90
43015;DHT22;28637;50.554;7.032;2023-01-29T18:21:01;0.70;99.90
43015;DHT22;28637;50.554;7.032;2023-01-29T18:26:01;0.70;99.90
43015;DHT22;28637;50.554;7.032;2023-01-29T18:31:03;0.70;99.90
43015;DHT22;28637;50.554;7.032;2023-01-29T18:36:04;0.60;99.90
43015;DHT22;28637;50.554;7.032;2023-01-29T18:41:07;0.40;99.90
43015;DHT22;28637;50.554;7.032;2023-01-29T18:46:11;0.20;99.90
43015;DHT22;28637;50.554;7.032;2023-01-29T18:51:12;0.20;99.90
43015;DHT22;28637;50.554;7.032;2023-01-29T18:56:13;0.10;99.90
43015;DHT22;28637;50.554;7.032;2023-01-29T19:01:13;0.00;99.90
43015;DHT22;28637;50.554;7.032;2023-01-29T19:06:14;0.10;99.90
43015;DHT22;28637;50.554;7.032;2023-01-29T19:11:14;0.10;99.90
43015;DHT22;28637;50.554;7.032;2023-01-29T19:16:15;0.10;99.90
43015;DHT22;28637;50.554;7.032;2023-01-29T19:21:16;0.20;99.90
43015;DHT22;28637;50.554;7.032;2023-01-29T19:26:17;0.30;99.90
43015;DHT22;28637;50.554;7.032;2023-01-29T19:31:18;0.20;99.90
43015;DHT22;28637;50.554;7.032;2023-01-29T19:36:18;0.20;99.90
43015;DHT22;28637;50.554;7.032;2023-01-29T19:41:19;0.20;99.90
43015;DHT22;28637;50.554;7.032;2023-01-29T19:46:20;0.10;99.90
43015;DHT22;28637;50.554;7.032;2023-01-29T19:51:20;0.10;99.90
43015;DHT22;28637;50.554;7.032;2023-01-29T19:56:22;0.10;99.90
43015;DHT22;28637;50.554;7.032;2023-01-29T20:01:23;0.20;99.90
43015;DHT22;28637;50.554;7.032;2023-01-29T20:06:29;0.10;99.90
43015;DHT22;28637;50.554;7.032;2023-01-29T20:11:30;0.20;99.90
43015;DHT22;28637;50.554;7.032;2023-01-29T20:16:31;0.10;99.90
43015;DHT22;28637;50.554;7.032;2023-01-29T20:21:31;0.20;99.90
43015;DHT22;28637;50.554;7.032;2023-01-29T20:26:32;0.20;99.90
43015;DHT22;28637;50.554;7.032;2023-01-29T20:31:33;0.30;99.90
43015;DHT22;28637;50.554;7.032;2023-01-29T20:36:33;0.30;99.90
43015;DHT22;28637;50.554;7.032;2023-01-29T20:41:34;0.30;99.90
43015;DHT22;28637;50.554;7.032;2023-01-29T20:46:36;0.20;99.90
43015;DHT22;28637;50.554;7.032;2023-01-29T20:51:37;0.30;99.90
43015;DHT22;28637;50.554;7.032;2023-01-29T20:56:38;0.20;99.90
43015;DHT22;28637;50.554;7.032;2023-01-29T21:01:41;0.20;99.90
43015;DHT22;28637;50.554;7.032;2023-01-29T21:06:42;0.20;99.90
43015;DHT22;28637;50.554;7.032;2023-01-29T21:11:43;0.20;99.90
43015;DHT22;28637;50.554;7.032;2023-01-29T21:16:44;0.20;99.90
43015;DHT22;28637;50.554;7.032;2023-01-29T21:21:45;0.30;99.90
43015;DHT22;28637;50.554;7.032;2023-01-29T21:26:45;0.30;99.90
43015;DHT22;28637;50.554;7.032;2023-01-29T21:31:46;0.40;99.90
43015;DHT22;28637;50.554;7.032;2023-01-29T21:36:47;0.30;99.90
43015;DHT22;28637;50.554;7.032;2023-01-29T21:41:48;0.30;99.90
43015;DHT22;28637;50.554;7.032;2023-01-29T21:47:08;0.40;99.90
43015;DHT22;28637;50.554;7.032;2023-01-29T21:52:12;0.40;99.90
43015;DHT22;28637;50.554;7.032;2023-01-29T21:57:14;0.50;99.90
43015;DHT22;28637;50.554;7.032;2023-01-29T22:02:14;0.40;99.90
43015;DHT22;28637;50.554;7.032;2023-01-29T22:07:15;0.40;99.90
43015;DHT22;28637;50.554;7.032;2023-01-29T22:12:16;0.50;99.90
43015;DHT22;28637;50.554;7.032;2023-01-29T22:17:17;0.50;99.90
43015;DHT22;28637;50.554;7.032;2023-01-29T22:22:19;0.50;99.90
43015;DHT22;28637;50.554;7.032;2023-01-29T22:27:20;0.50;99.90
43015;DHT22;28637;50.554;7.032;2023-01-29T22:32:20;0.60;99.90
43015;DHT22;28637;50.554;7.032;2023-01-29T22:37:21;0.60;99.90
43015;DHT22;28637;50.554;7.032;2023-01-29T22:42:21;0.70;99.90
43015;DHT22;28637;50.554;7.032;2023-01-29T22:47:22;0.80;99.90
43015;DHT22;28637;50.554;7.032;2023-01-29T22:52:23;0.80;99.90
43015;DHT22;28637;50.554;7.032;2023-01-29T22:57:23;0.80;99.90
43015;DHT22;28637;50.554;7.032;2023-01-29T23:02:24;0.90;99.90
43015;DHT22;28637;50.554;7.032;2023-01-29T23:07:24;0.80;99.90
43015;DHT22;28637;50.554;7.032;2023-01-29T23:12:25;0.90;99.90
43015;DHT22;28637;50.554;7.032;2023-01-29T23:17:26;0.90;99.90
43015;DHT22;28637;50.554;7.032;2023-01-29T23:22:26;0.90;99.90
43015;DHT22;28637;50.554;7.032;2023-01-29T23:27:27;0.90;99.90
43015;DHT22;28637;50.554;7.032;2023-01-29T23:32:28;0.80;99.90
43015;DHT22;28637;50.554;7.032;2023-01-29T23:37:30;0.80;99.90
43015;DHT22;28637;50.554;7.032;2023-01-29T23:42:30;0.80;99.90
43015;DHT22;28637;50.554;7.032;2023-01-29T23:47:31;0.80;99.90
43015;DHT22;28637;50.554;7.032;2023-01-29T23:52:31;0.90;99.90
43015;DHT22;28637;50.554;7.032;2023-01-29T23:57:32;0.90;99.90
